Time;durP1;ratioP1;P1;durP2;ratioP2;P2;SDS_P1;SDS_P2;PMS_P1;PMS_P2;Temp;Humidity;BMP_temperature;BMP_pressure;BME280_temperature;BME280_humidity;BME280_pressure;Samples;Min_cycle;Max_cycle;Signal;HPM_P1;HPM_P2
2022/09/25 00:01:26;;;;;;;14.05;11.45;;;14.30;99.90;;;;;;5014197;28;20018;-54
2022/09/25 00:04:12;;;;;;;14.18;12.15;;;14.30;99.90;;;;;;5016110;28;20034;-57
2022/09/25 00:06:58;;;;;;;14.55;12.60;;;14.30;99.90;;;;;;5024617;28;20061;-55
2022/09/25 00:09:44;;;;;;;12.45;11.15;;;14.20;99.90;;;;;;5024917;28;20037;-54
2022/09/25 00:12:43;;;;;;;12.75;11.48;;;14.20;99.90;;;;;;5023913;28;20037;-55
2022/09/25 00:15:30;;;;;;;13.05;11.70;;;14.20;99.90;;;;;;5021469;28;20397;-58
2022/09/25 00:19:48;;;;;;;13.00;11.73;;;14.20;99.90;;;;;;5013926;28;20030;-58
2022/09/25 00:21:23;;;;;;;12.98;11.73;;;14.20;99.90;;;;;;5014158;28;20022;-56
2022/09/25 00:24:12;;;;;;;13.60;12.32;;;14.20;99.90;;;;;;5013046;28;20026;-57
2022/09/25 00:27:00;;;;;;;13.85;12.40;;;14.20;99.90;;;;;;5013240;28;20037;-58
2022/09/25 00:29:46;;;;;;;13.25;12.00;;;14.20;99.90;;;;;;5012890;28;20061;-57
2022/09/25 00:32:32;;;;;;;13.95;12.65;;;14.20;99.90;;;;;;5012956;28;20069;-57
2022/09/25 00:35:18;;;;;;;12.35;11.25;;;14.10;99.90;;;;;;5012784;28;20030;-56
2022/09/25 00:38:04;;;;;;;13.30;12.00;;;14.10;99.90;;;;;;5012089;28;20110;-57
2022/09/25 00:40:50;;;;;;;13.60;12.27;;;14.10;99.90;;;;;;5012567;28;20026;-56
2022/09/25 00:43:55;;;;;;;13.70;12.18;;;14.10;99.90;;;;;;5012183;28;20038;-58
2022/09/25 00:46:43;;;;;;;13.93;12.63;;;14.10;99.90;;;;;;5012041;28;20042;-59
2022/09/25 00:49:29;;;;;;;13.65;12.32;;;14.00;99.90;;;;;;5012017;28;20032;-58
2022/09/25 00:52:16;;;;;;;12.93;11.63;;;14.00;99.90;;;;;;5011950;28;20133;-57
2022/09/25 00:55:06;;;;;;;14.45;13.05;;;14.00;99.90;;;;;;5011562;28;20438;-56
2022/09/25 00:57:57;;;;;;;13.80;12.40;;;13.90;99.90;;;;;;5012506;28;20072;-58
2022/09/25 01:00:44;;;;;;;13.90;12.40;;;13.90;99.90;;;;;;4998201;28;20033;-54
2022/09/25 01:03:33;;;;;;;13.25;11.95;;;13.90;99.90;;;;;;5012195;28;20067;-57
2022/09/25 01:06:24;;;;;;;13.63;12.20;;;13.80;99.90;;;;;;5011089;28;20417;-57
2022/09/25 01:09:10;;;;;;;13.27;12.07;;;13.80;99.90;;;;;;5012583;28;20069;-56
2022/09/25 01:11:59;;;;;;;13.93;12.15;;;13.80;99.90;;;;;;5010552;28;20040;-58
2022/09/25 01:14:45;;;;;;;15.10;13.60;;;13.80;99.90;;;;;;5011034;28;20026;-57
2022/09/25 01:17:44;;;;;;;16.30;13.77;;;13.70;99.90;;;;;;5011402;28;20064;-58
2022/09/25 01:20:45;;;;;;;15.45;13.85;;;13.60;99.90;;;;;;5011624;28;20033;-58
2022/09/25 01:23:55;;;;;;;17.67;15.90;;;13.50;99.90;;;;;;5011576;28;20113;-58
2022/09/25 01:26:56;;;;;;;16.50;14.90;;;13.50;99.90;;;;;;5011522;28;20034;-58
2022/09/25 01:30:17;;;;;;;15.52;13.98;;;13.40;99.90;;;;;;5010730;28;20386;-58
2022/09/25 01:33:17;;;;;;;13.88;12.52;;;13.40;99.90;;;;;;5009680;28;20505;-56
2022/09/25 01:36:10;;;;;;;13.93;12.57;;;13.40;99.90;;;;;;5011137;28;20084;-54
2022/09/25 01:39:08;;;;;;;13.23;11.82;;;13.50;99.90;;;;;;5010973;28;20030;-57
2022/09/25 01:42:20;;;;;;;14.57;13.00;;;13.60;99.90;;;;;;5004451;28;20032;-56
2022/09/25 01:45:09;;;;;;;15.30;13.80;;;13.60;99.90;;;;;;5009666;28;20033;-58
2022/09/25 01:47:58;;;;;;;16.10;14.55;;;13.60;99.90;;;;;;5011067;28;20037;-54
2022/09/25 01:51:02;;;;;;;18.08;14.30;;;13.60;99.90;;;;;;4996741;28;20109;-55
2022/09/25 01:53:52;;;;;;;15.68;14.13;;;13.60;99.90;;;;;;5004978;28;20112;-57
2022/09/25 01:56:52;;;;;;;15.52;13.20;;;13.50;99.90;;;;;;5010223;28;20030;-56
2022/09/25 01:59:46;;;;;;;13.60;12.30;;;13.60;99.90;;;;;;5010084;28;20018;-58
2022/09/25 02:02:38;;;;;;;13.90;12.60;;;13.60;99.90;;;;;;5009613;28;20059;-56
2022/09/25 02:05:45;;;;;;;14.27;12.88;;;13.60;99.90;;;;;;5011084;28;20596;-54
2022/09/25 02:08:39;;;;;;;14.60;13.10;;;13.70;99.90;;;;;;5011242;28;20072;-57
2022/09/25 02:11:31;;;;;;;13.70;12.38;;;13.70;99.90;;;;;;5010519;28;20030;-57
2022/09/25 02:14:25;;;;;;;16.05;13.82;;;13.70;99.90;;;;;;5010754;28;20062;-56
2022/09/25 02:20:30;;;;;;;16.05;14.45;;;13.70;99.90;;;;;;5010143;28;20030;-58
2022/09/25 02:20:32;;;;;;;14.85;13.43;;;13.60;99.90;;;;;;5010059;28;20040;-57
2022/09/25 02:23:20;;;;;;;14.60;13.05;;;13.60;99.90;;;;;;4991471;28;20584;-58
2022/09/25 02:26:10;;;;;;;15.23;13.82;;;13.70;99.90;;;;;;5003785;28;20115;-58
2022/09/25 02:28:57;;;;;;;14.45;13.15;;;13.70;99.90;;;;;;5010688;28;20088;-51
2022/09/25 02:31:56;;;;;;;15.32;13.77;;;13.70;99.90;;;;;;5009386;28;20030;-53
2022/09/25 02:34:42;;;;;;;16.00;14.40;;;13.70;99.90;;;;;;5010509;28;20117;-57
2022/09/25 02:37:28;;;;;;;16.30;14.80;;;13.70;99.90;;;;;;5009987;28;20022;-57
2022/09/25 02:40:15;;;;;;;16.77;15.18;;;13.70;99.90;;;;;;4995941;28;20038;-58
2022/09/25 02:43:34;;;;;;;16.05;14.40;;;13.70;99.90;;;;;;5010138;28;20037;-57
2022/09/25 02:46:29;;;;;;;14.88;13.50;;;13.60;99.90;;;;;;5010420;28;20041;-58
2022/09/25 02:49:26;;;;;;;16.38;14.77;;;13.70;99.90;;;;;;5010193;28;20041;-54
2022/09/25 02:52:26;;;;;;;16.65;14.98;;;13.70;99.90;;;;;;5009944;28;20033;-58
2022/09/25 02:55:48;;;;;;;16.10;14.38;;;13.70;99.90;;;;;;5010509;28;20030;-56
2022/09/25 02:58:45;;;;;;;16.67;14.90;;;13.60;99.90;;;;;;5009858;28;20032;-56
2022/09/25 03:01:34;;;;;;;18.17;16.30;;;13.60;99.90;;;;;;5009459;28;20038;-55
2022/09/25 03:04:22;;;;;;;17.65;16.00;;;13.50;99.90;;;;;;5014107;28;20034;-56
2022/09/25 03:07:08;;;;;;;17.58;15.95;;;13.50;99.90;;;;;;5014315;28;20793;-52
2022/09/25 03:09:56;;;;;;;17.63;15.65;;;13.40;99.90;;;;;;5013622;28;20073;-52
2022/09/25 03:12:42;;;;;;;18.42;16.55;;;13.30;99.90;;;;;;5013677;28;20148;-54
2022/09/25 03:15:28;;;;;;;17.33;15.75;;;13.20;99.90;;;;;;5013857;28;20509;-52
2022/09/25 03:18:14;;;;;;;19.50;17.67;;;13.30;99.90;;;;;;4999919;28;20112;-53
2022/09/25 03:21:02;;;;;;;21.48;19.30;;;13.30;99.90;;;;;;5012704;28;20026;-52
2022/09/25 03:23:48;;;;;;;21.15;19.05;;;13.30;99.90;;;;;;5014469;28;20447;-53
2022/09/25 03:26:34;;;;;;;18.85;16.83;;;13.20;99.90;;;;;;5014198;28;20045;-55
2022/09/25 03:29:20;;;;;;;20.67;18.67;;;13.20;99.90;;;;;;5014415;28;20151;-56
2022/09/25 03:32:06;;;;;;;18.73;16.85;;;13.20;99.90;;;;;;5013236;28;20041;-55
2022/09/25 03:34:52;;;;;;;20.20;18.10;;;13.20;99.90;;;;;;5013421;28;20033;-56
2022/09/25 03:37:38;;;;;;;20.85;18.20;;;13.20;99.90;;;;;;5013479;28;20120;-58
2022/09/25 03:40:24;;;;;;;18.25;16.55;;;13.20;99.90;;;;;;5013413;28;20049;-56
2022/09/25 03:43:12;;;;;;;18.70;16.90;;;13.30;99.90;;;;;;5012617;28;20103;-57
2022/09/25 03:45:58;;;;;;;18.00;16.40;;;13.50;99.90;;;;;;5013484;28;20037;-57
2022/09/25 03:48:45;;;;;;;18.70;16.67;;;13.50;99.90;;;;;;5013294;28;20034;-57
2022/09/25 03:51:32;;;;;;;17.88;16.20;;;13.50;99.90;;;;;;5012687;28;20029;-55
2022/09/25 03:54:18;;;;;;;17.55;15.85;;;13.40;99.90;;;;;;5013567;28;20065;-56
2022/09/25 03:57:04;;;;;;;18.13;16.42;;;13.40;99.90;;;;;;5013391;28;20026;-56
2022/09/25 03:59:51;;;;;;;19.17;17.33;;;13.40;99.90;;;;;;4999685;28;20026;-55
2022/09/25 04:02:37;;;;;;;19.65;17.65;;;13.40;99.90;;;;;;5012647;28;20026;-56
2022/09/25 04:05:22;;;;;;;19.55;17.58;;;13.40;99.90;;;;;;5012762;28;20037;-56
2022/09/25 04:08:09;;;;;;;19.65;17.73;;;13.30;99.90;;;;;;5012673;28;20122;-56
2022/09/25 04:10:58;;;;;;;18.35;16.55;;;13.40;99.90;;;;;;5011994;28;20030;-58
2022/09/25 04:13:44;;;;;;;18.55;16.65;;;13.30;99.90;;;;;;5011876;28;20022;-51
2022/09/25 04:16:30;;;;;;;19.45;17.52;;;13.30;99.90;;;;;;5012869;28;20120;-53
2022/09/25 04:19:16;;;;;;;20.35;18.42;;;13.30;99.90;;;;;;5013237;28;20109;-55
2022/09/25 04:22:02;;;;;;;19.67;17.73;;;13.40;99.90;;;;;;4998582;28;20497;-52
2022/09/25 04:24:48;;;;;;;18.55;16.65;;;13.40;99.90;;;;;;5013289;28;20034;-56
2022/09/25 04:27:35;;;;;;;19.48;17.60;;;13.30;99.90;;;;;;5015007;28;20034;-54
2022/09/25 04:30:26;;;;;;;19.58;17.70;;;13.30;99.90;;;;;;5014405;28;20038;-55
2022/09/25 04:36:17;;;;;;;19.55;17.65;;;13.50;99.90;;;;;;5012441;28;20519;-56
2022/09/25 04:39:03;;;;;;;19.13;17.13;;;13.40;99.90;;;;;;5017963;28;20116;-55
2022/09/25 04:41:50;;;;;;;19.38;17.35;;;13.40;99.90;;;;;;5015244;28;20098;-59
2022/09/25 04:44:35;;;;;;;20.23;18.23;;;13.40;99.90;;;;;;5013713;28;20034;-55
2022/09/25 04:47:23;;;;;;;22.10;19.92;;;13.30;99.90;;;;;;5012329;28;20116;-55
2022/09/25 04:50:09;;;;;;;20.50;18.50;;;13.40;99.90;;;;;;4993103;28;20402;-57
2022/09/25 04:52:59;;;;;;;20.73;18.75;;;13.40;99.90;;;;;;5008890;28;20446;-56
2022/09/25 04:55:46;;;;;;;22.50;20.02;;;13.40;99.90;;;;;;5012850;28;20034;-57
2022/09/25 04:58:32;;;;;;;21.25;19.25;;;13.40;99.90;;;;;;4993713;28;20062;-54
2022/09/25 05:01:19;;;;;;;21.15;18.95;;;13.40;99.90;;;;;;5003645;28;20393;-54
2022/09/25 05:04:05;;;;;;;20.88;18.80;;;13.40;99.90;;;;;;5012671;28;20030;-55
2022/09/25 05:06:51;;;;;;;22.02;19.83;;;13.50;99.90;;;;;;5014320;28;20096;-58
2022/09/25 05:09:37;;;;;;;21.88;19.77;;;13.40;99.90;;;;;;5013661;28;20037;-55
2022/09/25 05:12:23;;;;;;;21.23;19.02;;;13.30;99.90;;;;;;5017630;28;20033;-55
2022/09/25 05:15:09;;;;;;;21.60;19.40;;;13.30;99.90;;;;;;5015328;28;20030;-56
2022/09/25 05:18:03;;;;;;;23.45;20.95;;;13.30;99.90;;;;;;5019251;28;20037;-53
2022/09/25 05:20:49;;;;;;;22.23;19.83;;;13.30;99.90;;;;;;5019851;28;20494;-61
2022/09/25 05:23:35;;;;;;;23.80;21.48;;;13.20;99.90;;;;;;5014670;28;20521;-59
2022/09/25 05:26:22;;;;;;;23.98;21.48;;;13.20;99.90;;;;;;5012863;28;20548;-56
2022/09/25 05:29:09;;;;;;;25.85;23.15;;;13.10;99.90;;;;;;5011173;28;20046;-54
2022/09/25 05:31:55;;;;;;;25.73;21.55;;;13.10;99.90;;;;;;5010925;28;20038;-53
2022/09/25 05:34:41;;;;;;;23.95;21.45;;;13.10;99.90;;;;;;5011768;28;20425;-55
2022/09/25 05:37:27;;;;;;;25.13;21.48;;;13.20;99.90;;;;;;5011134;28;20030;-52
2022/09/25 05:40:14;;;;;;;30.50;27.23;;;13.20;99.90;;;;;;4997364;28;20394;-53
2022/09/25 05:43:01;;;;;;;25.95;21.85;;;13.20;99.90;;;;;;5011199;28;20061;-57
2022/09/25 05:45:57;;;;;;;23.33;21.13;;;13.20;99.90;;;;;;5010749;28;20032;-60
2022/09/25 05:48:43;;;;;;;23.42;21.08;;;13.20;99.90;;;;;;5011544;28;20030;-57
2022/09/25 05:51:32;;;;;;;24.67;21.40;;;13.20;99.90;;;;;;5011126;28;20033;-58
2022/09/25 05:54:18;;;;;;;23.23;20.83;;;13.20;99.90;;;;;;5011150;28;20037;-53
2022/09/25 05:57:04;;;;;;;26.63;23.70;;;13.20;99.90;;;;;;5011087;28;20057;-54
2022/09/25 05:59:50;;;;;;;26.33;23.50;;;13.20;99.90;;;;;;5010807;28;20083;-55
2022/09/25 06:02:36;;;;;;;27.85;23.38;;;13.20;99.90;;;;;;5010803;28;20076;-57
2022/09/25 06:05:22;;;;;;;25.90;22.98;;;13.20;99.90;;;;;;5010404;28;20034;-56
2022/09/25 06:08:08;;;;;;;24.42;21.20;;;13.20;99.90;;;;;;5010693;28;20041;-53
2022/09/25 06:10:54;;;;;;;25.35;22.60;;;13.30;99.90;;;;;;5010974;28;20463;-56
2022/09/25 06:13:43;;;;;;;30.30;22.67;;;13.30;99.90;;;;;;5011275;28;20041;-60
2022/09/25 06:16:29;;;;;;;22.80;20.60;;;13.30;99.90;;;;;;5011906;28;20494;-56
2022/09/25 06:19:16;;;;;;;24.08;20.50;;;13.30;99.90;;;;;;5011008;28;20042;-57
2022/09/25 06:22:02;;;;;;;23.88;21.05;;;13.40;99.90;;;;;;4996922;28;20405;-55
2022/09/25 06:24:48;;;;;;;20.48;18.38;;;13.40;99.90;;;;;;5010515;28;20099;-56
2022/09/25 06:27:33;;;;;;;23.30;20.55;;;13.50;99.90;;;;;;5010411;28;20045;-57
2022/09/25 06:30:20;;;;;;;23.88;21.48;;;13.50;99.90;;;;;;5010706;28;20033;-57
2022/09/25 06:33:12;;;;;;;23.35;20.95;;;13.60;99.90;;;;;;5010619;28;20046;-55
2022/09/25 06:35:59;;;;;;;23.70;21.00;;;13.60;99.90;;;;;;5013311;28;20506;-54
2022/09/25 06:38:45;;;;;;;26.92;24.20;;;13.60;99.90;;;;;;5016040;28;20065;-53
2022/09/25 06:41:31;;;;;;;21.60;19.50;;;13.60;99.90;;;;;;5013832;28;20032;-55
2022/09/25 06:44:17;;;;;;;23.08;20.77;;;13.60;99.90;;;;;;5016137;28;20080;-54
2022/09/25 06:47:03;;;;;;;26.25;21.95;;;13.60;99.90;;;;;;5001044;28;20494;-55
2022/09/25 06:49:49;;;;;;;24.52;21.85;;;13.60;99.90;;;;;;5013986;28;20026;-52
2022/09/25 06:52:43;;;;;;;23.17;20.88;;;13.60;99.90;;;;;;5014670;28;20464;-57
2022/09/25 06:55:39;;;;;;;26.90;22.65;;;13.60;99.90;;;;;;5014825;28;20536;-54
2022/09/25 06:58:26;;;;;;;25.17;22.67;;;13.60;99.90;;;;;;5013841;28;20037;-60
2022/09/25 07:01:12;;;;;;;53.47;44.85;;;13.60;99.90;;;;;;5013712;28;20088;-56
2022/09/25 07:04:00;;;;;;;35.97;30.90;;;13.60;99.90;;;;;;5011077;28;20062;-57
2022/09/25 07:06:47;;;;;;;28.85;24.00;;;13.70;99.90;;;;;;5018209;28;20442;-55
2022/09/25 07:09:33;;;;;;;23.95;21.42;;;13.60;99.90;;;;;;5014153;28;20034;-52
2022/09/25 07:12:20;;;;;;;24.00;21.35;;;13.70;99.90;;;;;;5012721;28;20026;-54
2022/09/25 07:15:07;;;;;;;24.42;21.98;;;13.70;99.90;;;;;;4987559;28;20557;-53
2022/09/25 07:17:53;;;;;;;25.77;23.17;;;13.70;99.90;;;;;;5014448;28;20116;-55
2022/09/25 07:20:39;;;;;;;25.90;22.88;;;13.70;99.90;;;;;;5014017;28;20049;-55
2022/09/25 07:23:25;;;;;;;23.98;21.48;;;13.70;99.90;;;;;;4994418;28;20680;-56
2022/09/25 07:26:14;;;;;;;49.88;41.45;;;13.80;99.90;;;;;;4996567;28;20497;-56
2022/09/25 07:29:05;;;;;;;25.75;23.08;;;13.70;99.90;;;;;;5020826;28;20045;-55
2022/09/25 07:31:51;;;;;;;25.73;23.13;;;13.70;99.90;;;;;;5016616;28;20053;-57
2022/09/25 07:34:37;;;;;;;25.35;22.00;;;13.70;99.90;;;;;;5016040;28;20445;-55
2022/09/25 07:37:23;;;;;;;24.48;21.88;;;13.70;99.90;;;;;;5014718;28;20030;-54
2022/09/25 07:40:13;;;;;;;23.88;21.38;;;13.70;99.90;;;;;;5013609;28;20509;-55
2022/09/25 07:42:59;;;;;;;24.80;22.25;;;13.70;99.90;;;;;;5007762;28;20105;-56
2022/09/25 07:45:52;;;;;;;23.65;21.27;;;13.60;99.90;;;;;;5012087;28;20049;-61
2022/09/25 07:48:38;;;;;;;30.73;23.10;;;13.80;99.90;;;;;;4997623;28;20105;-57
2022/09/25 07:51:25;;;;;;;26.63;23.75;;;13.70;99.90;;;;;;5008686;28;20045;-55
2022/09/25 07:54:11;;;;;;;26.08;22.55;;;13.70;99.90;;;;;;5000258;28;20113;-59
2022/09/25 07:56:57;;;;;;;26.15;23.27;;;13.90;99.90;;;;;;5011061;28;20070;-58
2022/09/25 07:59:44;;;;;;;25.75;23.05;;;13.90;99.90;;;;;;4993882;28;20026;-60
2022/09/25 08:02:29;;;;;;;22.88;20.58;;;14.00;99.90;;;;;;5014635;28;20026;-58
2022/09/25 08:05:16;;;;;;;25.42;22.70;;;14.00;99.90;;;;;;5004901;28;20057;-58
2022/09/25 08:08:03;;;;;;;24.83;21.77;;;14.00;99.90;;;;;;5014122;28;20029;-57
2022/09/25 08:10:48;;;;;;;25.15;22.65;;;14.10;99.90;;;;;;5012853;28;20084;-59
2022/09/25 08:13:37;;;;;;;23.88;21.38;;;14.30;99.90;;;;;;5012357;28;20041;-61
2022/09/25 08:16:23;;;;;;;26.08;23.38;;;14.30;99.90;;;;;;5007807;28;20108;-58
2022/09/25 08:19:12;;;;;;;26.30;23.52;;;14.50;99.90;;;;;;5005375;28;20033;-60
2022/09/25 08:21:59;;;;;;;23.95;21.45;;;14.50;99.90;;;;;;5005977;28;20367;-59
2022/09/25 08:24:45;;;;;;;24.80;21.92;;;14.60;99.90;;;;;;4963054;28;20043;-61
2022/09/25 08:27:34;;;;;;;24.23;21.75;;;14.50;99.90;;;;;;5008779;28;20034;-59
2022/09/25 08:30:20;;;;;;;23.38;20.77;;;14.60;99.90;;;;;;5008689;28;20044;-58
2022/09/25 08:33:12;;;;;;;23.90;21.40;;;14.80;99.90;;;;;;5010176;28;20104;-57
2022/09/25 08:36:00;;;;;;;22.90;20.42;;;14.90;99.90;;;;;;5002723;28;20038;-58
2022/09/25 08:38:46;;;;;;;24.08;21.63;;;15.00;99.90;;;;;;5006554;28;20482;-61
2022/09/25 08:41:47;;;;;;;24.50;19.90;;;15.00;99.90;;;;;;5008962;28;20222;-60
2022/09/25 08:44:46;;;;;;;23.70;21.20;;;15.20;99.90;;;;;;5003661;28;20062;-55
2022/09/25 08:50:37;;;;;;;25.33;22.73;;;15.30;99.90;;;;;;4984032;28;20038;-60
2022/09/25 08:53:24;;;;;;;25.70;23.08;;;15.20;99.90;;;;;;5006958;28;20089;-60
2022/09/25 08:56:16;;;;;;;22.98;20.55;;;15.20;99.90;;;;;;5015024;28;20442;-59
2022/09/25 08:59:27;;;;;;;24.77;21.63;;;15.40;99.90;;;;;;5013868;28;20032;-59
2022/09/25 09:02:21;;;;;;;26.00;22.30;;;15.40;99.90;;;;;;5017553;28;20036;-57
2022/09/25 09:05:23;;;;;;;25.55;22.17;;;15.40;99.90;;;;;;5011764;28;20106;-55
2022/09/25 09:08:24;;;;;;;27.25;23.05;;;15.30;99.90;;;;;;5005163;28;20477;-54
2022/09/25 09:11:21;;;;;;;23.90;21.30;;;15.40;99.90;;;;;;5007351;28;20022;-54
2022/09/25 09:14:15;;;;;;;23.90;21.48;;;15.40;99.90;;;;;;5011741;28;20136;-51
2022/09/25 09:17:25;;;;;;;22.92;20.08;;;15.40;99.90;;;;;;5006292;28;20153;-52
2022/09/25 09:20:22;;;;;;;23.02;20.48;;;15.50;99.90;;;;;;5011897;28;20038;-52
2022/09/25 09:23:16;;;;;;;21.45;19.13;;;15.40;99.90;;;;;;5006111;28;20022;-58
2022/09/25 09:26:19;;;;;;;21.30;18.92;;;15.60;99.90;;;;;;5003205;28;20409;-50
2022/09/25 09:29:29;;;;;;;24.00;19.30;;;15.80;99.90;;;;;;5005531;28;20022;-52
2022/09/25 09:32:42;;;;;;;22.70;19.05;;;15.90;99.90;;;;;;5004770;28;20049;-57
2022/09/25 09:35:55;;;;;;;22.85;19.35;;;15.90;99.90;;;;;;5005006;28;20033;-54
2022/09/25 09:39:45;;;;;;;22.38;19.23;;;16.10;99.90;;;;;;4995156;28;20142;-54
2022/09/25 09:42:43;;;;;;;19.77;17.67;;;16.30;99.90;;;;;;4958291;28;20047;-51
2022/09/25 09:45:45;;;;;;;20.23;18.13;;;16.50;99.90;;;;;;4992206;28;20104;-52
2022/09/25 09:48:51;;;;;;;20.20;17.10;;;16.40;99.90;;;;;;5011215;28;20025;-50
2022/09/25 09:51:40;;;;;;;19.00;16.63;;;16.40;99.90;;;;;;5015041;28;20030;-52
2022/09/25 09:54:47;;;;;;;18.05;16.15;;;16.50;99.90;;;;;;5006278;28;20473;-51
2022/09/25 09:57:43;;;;;;;18.77;16.77;;;16.70;99.30;;;;;;5011574;28;20105;-50
2022/09/25 10:00:31;;;;;;;17.27;15.10;;;16.70;99.40;;;;;;5010353;28;20065;-55
2022/09/25 10:03:44;;;;;;;25.90;21.77;;;16.60;99.40;;;;;;4997994;28;20026;-55
2022/09/25 10:06:34;;;;;;;18.58;15.05;;;16.80;99.40;;;;;;5001755;28;20102;-57
2022/09/25 10:09:21;;;;;;;15.63;14.02;;;16.90;99.50;;;;;;5000508;28;20041;-54
2022/09/25 10:12:20;;;;;;;15.00;13.40;;;17.00;98.90;;;;;;5007344;28;20038;-51
2022/09/25 10:15:33;;;;;;;15.02;13.50;;;17.20;98.50;;;;;;5007942;28;20030;-54
2022/09/25 10:18:21;;;;;;;14.00;12.60;;;17.20;97.80;;;;;;5003857;28;20096;-52
2022/09/25 10:21:15;;;;;;;14.13;11.95;;;17.50;97.60;;;;;;5005496;28;20041;-50
2022/09/25 10:24:02;;;;;;;16.02;13.82;;;17.70;97.30;;;;;;5008643;28;20117;-51
2022/09/25 10:26:48;;;;;;;14.13;12.70;;;17.80;96.90;;;;;;5007725;28;20125;-51
2022/09/25 10:29:33;;;;;;;13.70;12.30;;;17.80;96.60;;;;;;5009568;28;20034;-58
2022/09/25 10:32:19;;;;;;;14.38;11.90;;;17.70;96.70;;;;;;5008507;28;20536;-52
2022/09/25 10:35:17;;;;;;;13.13;11.70;;;17.80;96.70;;;;;;5006853;28;20516;-55
2022/09/25 10:38:04;;;;;;;13.15;11.85;;;17.70;96.60;;;;;;5006418;28;20026;-52
2022/09/25 10:41:11;;;;;;;13.60;12.18;;;17.80;96.40;;;;;;5005035;28;20030;-53
2022/09/25 10:44:00;;;;;;;11.98;10.75;;;17.80;96.40;;;;;;5005067;28;20116;-52
2022/09/25 10:52:58;;;;;;;11.98;10.77;;;17.80;96.40;;;;;;5007096;28;20420;-56
2022/09/25 10:55:50;;;;;;;12.68;11.38;;;18.00;96.30;;;;;;5009505;28;20040;-53
2022/09/25 10:58:41;;;;;;;13.02;11.55;;;18.00;95.80;;;;;;5005575;28;20018;-52
2022/09/25 11:01:39;;;;;;;12.27;10.98;;;18.20;95.80;;;;;;5008504;28;20728;-54
2022/09/25 11:04:33;;;;;;;12.20;10.90;;;18.50;95.30;;;;;;5007112;28;20046;-57
2022/09/25 11:07:26;;;;;;;14.27;12.50;;;18.80;94.90;;;;;;5008469;28;20038;-54
2022/09/25 11:10:20;;;;;;;12.85;11.55;;;18.60;94.70;;;;;;5009433;28;20444;-53
2022/09/25 11:13:19;;;;;;;11.43;10.27;;;18.80;94.50;;;;;;5007552;28;20665;-52
2022/09/25 11:16:09;;;;;;;12.07;10.80;;;18.80;94.50;;;;;;5006417;28;20038;-54
2022/09/25 11:19:15;;;;;;;11.88;10.63;;;18.90;94.10;;;;;;5008802;28;20597;-56
2022/09/25 11:22:19;;;;;;;11.10;10.00;;;18.90;93.80;;;;;;5004717;28;20109;-55
2022/09/25 11:25:26;;;;;;;10.90;9.80;;;19.10;93.90;;;;;;5010060;28;20065;-54
2022/09/25 11:28:37;;;;;;;11.70;10.50;;;19.30;93.50;;;;;;4995482;28;20042;-55
2022/09/25 11:31:42;;;;;;;12.00;10.80;;;19.00;93.50;;;;;;5007103;28;20094;-60
2022/09/25 11:34:57;;;;;;;12.43;9.83;;;18.70;93.80;;;;;;5011226;28;20036;-55
2022/09/25 11:38:05;;;;;;;10.38;9.27;;;18.60;93.80;;;;;;5013113;28;20022;-52
2022/09/25 11:41:13;;;;;;;10.15;9.15;;;18.60;93.70;;;;;;5005073;28;20015;-52
2022/09/25 11:44:13;;;;;;;9.05;8.15;;;18.40;93.60;;;;;;5011602;28;20034;-54
2022/09/25 11:47:14;;;;;;;10.00;9.00;;;18.30;94.10;;;;;;5009636;28;20030;-56
2022/09/25 11:50:01;;;;;;;8.40;7.57;;;18.30;94.20;;;;;;5010048;28;20112;-54
2022/09/25 11:53:00;;;;;;;10.32;9.15;;;18.40;93.70;;;;;;5011101;28;20500;-52
2022/09/25 11:56:02;;;;;;;9.23;8.23;;;18.30;93.20;;;;;;5011243;28;20034;-51
2022/09/25 11:59:12;;;;;;;9.32;8.18;;;18.30;93.80;;;;;;5011459;28;20052;-53
2022/09/25 12:02:14;;;;;;;9.85;8.85;;;18.70;93.50;;;;;;5008653;28;20034;-54
2022/09/25 12:05:44;;;;;;;8.63;7.57;;;18.80;92.70;;;;;;5008284;28;20101;-53
2022/09/25 12:08:36;;;;;;;9.82;8.77;;;19.10;91.50;;;;;;5010116;28;20041;-54
2022/09/25 12:11:24;;;;;;;9.35;8.23;;;19.20;91.50;;;;;;5007023;28;20061;-52
2022/09/25 12:14:31;;;;;;;10.95;9.85;;;19.20;91.60;;;;;;5005632;28;20136;-54
2022/09/25 12:17:30;;;;;;;9.30;8.30;;;19.40;91.60;;;;;;4992155;28;20029;-54
2022/09/25 12:20:42;;;;;;;9.65;8.20;;;19.60;91.10;;;;;;4991520;28;20030;-57
2022/09/25 12:23:36;;;;;;;9.98;8.27;;;19.70;91.00;;;;;;4991951;28;20552;-55
2022/09/25 12:27:04;;;;;;;10.20;7.90;;;20.00;90.60;;;;;;4993295;28;20035;-54
2022/09/25 12:30:20;;;;;;;9.32;7.57;;;19.90;90.80;;;;;;4975361;28;20030;-52
2022/09/25 12:33:08;;;;;;;11.95;8.55;;;20.00;90.70;;;;;;4979144;28;20087;-49
2022/09/25 12:35:58;;;;;;;9.57;8.13;;;20.10;90.50;;;;;;4992977;28;20506;-52
2022/09/25 12:39:00;;;;;;;9.80;8.82;;;20.20;90.40;;;;;;4993562;28;20399;-52
2022/09/25 12:42:15;;;;;;;11.85;8.77;;;20.20;90.80;;;;;;4993170;28;20053;-54
2022/09/25 12:45:31;;;;;;;13.48;9.55;;;20.10;91.00;;;;;;4996427;28;20030;-53
2022/09/25 12:48:38;;;;;;;11.00;9.23;;;20.10;90.50;;;;;;4985510;28;20026;-50
2022/09/25 12:51:39;;;;;;;9.88;8.80;;;20.20;90.80;;;;;;5000488;28;20022;-56
2022/09/25 12:54:35;;;;;;;9.43;8.05;;;20.30;90.60;;;;;;5001208;28;20023;-53
2022/09/25 12:57:27;;;;;;;10.15;8.40;;;20.60;90.30;;;;;;5003336;28;20076;-55
2022/09/25 13:00:22;;;;;;;9.82;7.97;;;20.30;90.30;;;;;;5000571;28;20019;-53
2022/09/25 13:03:18;;;;;;;10.75;8.02;;;20.20;90.40;;;;;;4993568;28;20545;-56
2022/09/25 13:06:19;;;;;;;9.77;8.23;;;20.20;89.80;;;;;;4994140;28;20037;-55
2022/09/25 13:09:34;;;;;;;10.20;8.73;;;20.10;90.20;;;;;;4993445;28;20066;-55
2022/09/25 13:12:32;;;;;;;9.98;8.95;;;20.50;90.00;;;;;;4994357;28;20077;-56
2022/09/25 13:15:22;;;;;;;11.23;8.93;;;19.90;90.50;;;;;;4993463;28;20034;-54
2022/09/25 13:18:19;;;;;;;9.88;8.88;;;19.30;91.20;;;;;;4991834;28;20035;-56
2022/09/25 13:21:29;;;;;;;10.55;9.45;;;19.20;91.60;;;;;;4979073;28;20310;-56
2022/09/25 13:24:17;;;;;;;9.80;8.88;;;19.20;91.70;;;;;;4992837;28;20057;-56
2022/09/25 13:27:03;;;;;;;8.93;7.97;;;19.00;91.90;;;;;;4992689;28;20030;-54
2022/09/25 13:32:23;;;;;;;9.65;8.65;;;18.70;92.20;;;;;;4984775;28;20046;-55
2022/09/25 13:35:17;;;;;;;10.50;8.80;;;18.70;92.30;;;;;;4993526;28;20034;-53
2022/09/25 13:41:28;;;;;;;8.55;7.18;;;18.70;92.30;;;;;;4993277;28;20034;-53
2022/09/25 13:44:41;;;;;;;9.68;8.68;;;18.70;92.50;;;;;;4982604;28;20030;-53
2022/09/25 13:47:47;;;;;;;11.13;8.80;;;18.70;92.30;;;;;;4978486;28;20498;-56
2022/09/25 13:50:44;;;;;;;11.13;8.65;;;18.80;92.30;;;;;;4994816;28;20055;-52
2022/09/25 13:54:03;;;;;;;9.93;8.93;;;18.80;92.50;;;;;;4992704;28;20026;-55
2022/09/25 13:56:52;;;;;;;11.70;10.50;;;18.60;92.60;;;;;;4995518;28;20023;-55
2022/09/25 13:59:38;;;;;;;11.27;10.18;;;18.60;92.50;;;;;;4992432;28;20035;-55
2022/09/25 14:02:41;;;;;;;10.43;9.07;;;18.70;92.30;;;;;;4991778;28;20030;-51
2022/09/25 14:05:34;;;;;;;9.75;8.45;;;18.70;92.50;;;;;;4993773;28;20058;-53
2022/09/25 14:08:20;;;;;;;9.13;8.18;;;18.80;92.60;;;;;;4992211;28;20075;-53
2022/09/25 14:11:11;;;;;;;9.63;8.63;;;18.60;92.90;;;;;;4990323;28;20483;-50
2022/09/25 14:14:00;;;;;;;10.82;8.35;;;18.30;93.30;;;;;;4977560;28;20034;-54
2022/09/25 14:16:49;;;;;;;10.30;7.80;;;18.30;93.30;;;;;;4991240;28;20513;-52
2022/09/25 14:19:40;;;;;;;11.88;10.57;;;18.20;93.70;;;;;;4991382;28;20038;-51
2022/09/25 14:22:38;;;;;;;13.45;8.93;;;18.20;94.10;;;;;;4992918;28;20018;-55
2022/09/25 14:25:37;;;;;;;10.70;8.48;;;18.10;94.40;;;;;;4992266;28;20027;-55
2022/09/25 14:28:41;;;;;;;11.38;10.02;;;18.00;94.60;;;;;;4992372;28;20070;-55
2022/09/25 14:31:30;;;;;;;10.57;8.95;;;17.90;94.90;;;;;;4991073;28;20398;-52
2022/09/25 14:34:54;;;;;;;9.98;8.98;;;17.90;95.10;;;;;;4991923;28;20027;-51
2022/09/25 14:38:16;;;;;;;10.27;9.25;;;18.00;94.90;;;;;;4991048;28;20030;-54
2022/09/25 14:41:17;;;;;;;12.73;8.70;;;17.90;94.90;;;;;;4990459;28;20018;-54
2022/09/25 14:44:25;;;;;;;10.13;8.23;;;17.70;95.20;;;;;;4990671;28;20022;-57
2022/09/25 14:47:13;;;;;;;8.23;7.43;;;17.70;95.20;;;;;;4990189;28;20030;-53
2022/09/25 14:49:59;;;;;;;9.15;7.50;;;17.60;95.50;;;;;;4990584;28;20030;-53
2022/09/25 14:52:47;;;;;;;9.15;7.75;;;17.60;95.50;;;;;;4989711;28;20034;-57
2022/09/25 14:55:38;;;;;;;9.55;8.48;;;17.60;95.30;;;;;;4990566;28;20068;-54
2022/09/25 14:58:27;;;;;;;8.18;7.20;;;17.40;95.50;;;;;;4993326;28;20027;-55
2022/09/25 15:01:18;;;;;;;8.40;6.68;;;17.40;95.60;;;;;;4979200;28;20033;-56